createdAt,value
2018-11-02T00:01:32.199Z,10.00
2018-11-02T00:04:03.011Z,9.03
2018-11-02T00:06:34.438Z,8.57
2018-11-02T00:09:06.153Z,9.03
2018-11-02T00:11:37.167Z,9.73
2018-11-02T00:14:08.181Z,9.53
2018-11-02T00:16:39.107Z,11.07
2018-11-02T00:19:10.034Z,9.73
2018-11-02T00:21:40.891Z,10.57
2018-11-02T00:24:11.896Z,11.30
2018-11-02T00:26:42.776Z,10.93
2018-11-02T00:29:13.617Z,10.20
2018-11-02T00:31:44.557Z,10.87
2018-11-02T00:34:15.281Z,10.57
2018-11-02T00:36:46.293Z,9.47
2018-11-02T00:39:17.164Z,9.87
2018-11-02T00:41:48.047Z,9.97
2018-11-02T00:44:19.110Z,9.13
2018-11-02T00:46:49.966Z,8.00
2018-11-02T00:49:21.223Z,8.97
2018-11-02T00:51:52.135Z,7.33
2018-11-02T00:54:23.006Z,7.37
2018-11-02T00:56:53.911Z,6.80
2018-11-02T00:59:24.775Z,7.47
2018-11-02T01:01:55.682Z,7.40
2018-11-02T01:04:26.515Z,6.27
2018-11-02T01:06:57.356Z,6.63
2018-11-02T01:09:28.152Z,7.73
2018-11-02T01:11:59.022Z,7.53
2018-11-02T01:14:29.941Z,7.30
2018-11-02T01:17:00.829Z,7.13
2018-11-02T01:19:33.335Z,7.03
2018-11-02T01:22:05.743Z,6.73
2018-11-02T01:24:36.602Z,7.17
2018-11-02T01:27:07.566Z,8.23
2018-11-02T01:29:38.335Z,7.87
2018-11-02T01:32:09.164Z,6.43
2018-11-02T01:34:40.067Z,6.73
2018-11-02T01:37:10.885Z,6.37
2018-11-02T01:39:41.742Z,7.20
2018-11-02T01:42:12.723Z,6.73
2018-11-02T01:44:43.584Z,7.07
2018-11-02T01:47:14.592Z,6.53
2018-11-02T01:49:45.552Z,6.03
2018-11-02T01:52:16.393Z,5.70
2018-11-02T01:54:47.177Z,7.80
2018-11-02T01:57:18.088Z,7.27
2018-11-02T01:59:49.196Z,6.30
2018-11-02T02:02:20.024Z,6.67
2018-11-02T02:04:50.839Z,5.93
2018-11-02T02:07:21.705Z,5.17
2018-11-02T02:09:52.641Z,5.70
2018-11-02T02:12:23.472Z,7.33
2018-11-02T02:14:54.334Z,4.90
2018-11-02T02:17:25.307Z,4.73
2018-11-02T02:19:56.366Z,5.43
2018-11-02T02:22:27.239Z,5.70
2018-11-02T02:24:58.104Z,6.97
2018-11-02T02:27:29.053Z,5.50
2018-11-02T02:29:59.924Z,6.10
2018-11-02T02:32:30.809Z,5.87
2018-11-02T02:35:01.578Z,5.97
2018-11-02T02:37:32.711Z,5.57
2018-11-02T02:40:03.680Z,5.50
2018-11-02T02:42:34.707Z,5.20
2018-11-02T02:45:06.801Z,5.43
2018-11-02T02:47:38.928Z,20.53
2018-11-02T02:50:14.447Z,10.30
2018-11-02T02:52:45.667Z,7.33
2018-11-02T02:55:16.693Z,6.83
2018-11-02T02:57:47.543Z,7.63
2018-11-02T03:00:18.354Z,8.93
2018-11-02T03:02:49.164Z,9.17
2018-11-02T03:05:19.979Z,9.00
2018-11-02T03:07:50.823Z,7.33
2018-11-02T03:10:21.761Z,6.73
2018-11-02T03:12:52.642Z,6.80
2018-11-02T03:15:23.588Z,6.37
2018-11-02T03:17:54.454Z,6.53
2018-11-02T03:20:25.411Z,6.47
2018-11-02T03:22:56.225Z,6.77
2018-11-02T03:25:27.121Z,6.23
2018-11-02T03:27:57.953Z,6.10
2018-11-02T03:30:28.833Z,6.27
2018-11-02T03:32:59.751Z,6.40
2018-11-02T03:35:30.644Z,5.70
2018-11-02T03:38:01.591Z,5.33
2018-11-02T03:40:32.430Z,5.63
2018-11-02T03:43:03.339Z,5.30
2018-11-02T03:45:34.118Z,5.20
2018-11-02T03:48:05.017Z,5.67
2018-11-02T03:50:35.801Z,5.90
2018-11-02T03:53:06.672Z,5.60
2018-11-02T03:55:37.473Z,5.10
2018-11-02T03:58:08.314Z,5.40
2018-11-02T04:00:40.997Z,5.80
2018-11-02T04:03:11.970Z,5.73
2018-11-02T04:05:42.793Z,5.07
2018-11-02T04:08:13.749Z,6.97
2018-11-02T04:10:44.931Z,6.30
2018-11-02T04:13:15.764Z,5.70
2018-11-02T04:15:47.165Z,5.87
2018-11-02T04:18:18.111Z,6.03
2018-11-02T04:20:49.280Z,5.37
2018-11-02T04:23:20.270Z,6.13
2018-11-02T04:25:51.196Z,6.33
2018-11-02T04:28:22.496Z,5.33
2018-11-02T04:30:53.412Z,5.67
2018-11-02T04:33:24.210Z,5.03
2018-11-02T04:35:55.165Z,4.83
2018-11-02T04:38:26.085Z,5.23
2018-11-02T04:40:57.150Z,5.17
2018-11-02T04:43:28.227Z,4.67
2018-11-02T04:45:59.185Z,4.57
2018-11-02T04:48:30.596Z,3.80
2018-11-02T04:51:01.718Z,4.80
2018-11-02T04:53:33.275Z,4.30
2018-11-02T04:56:04.191Z,4.30
2018-11-02T04:58:35.164Z,4.23
2018-11-02T05:01:06.072Z,5.80
2018-11-02T05:03:36.909Z,5.03
2018-11-02T05:06:07.750Z,5.07
2018-11-02T05:08:38.610Z,4.60
2018-11-02T05:11:09.513Z,3.83
2018-11-02T05:13:40.577Z,4.07
2018-11-02T05:16:11.508Z,4.07
2018-11-02T05:18:42.309Z,4.70
2018-11-02T05:21:13.130Z,3.83
2018-11-02T05:23:43.914Z,4.17
2018-11-02T05:26:14.769Z,3.63
2018-11-02T05:28:45.910Z,3.90
2018-11-02T05:31:16.716Z,4.17
2018-11-02T05:33:47.533Z,4.50
2018-11-02T05:36:18.461Z,4.73
2018-11-02T05:38:49.281Z,4.67
2018-11-02T05:41:20.177Z,5.20
2018-11-02T05:43:51.207Z,5.67
2018-11-02T05:46:22.006Z,5.53
2018-11-02T05:48:53.000Z,5.43
2018-11-02T05:51:23.822Z,5.47
2018-11-02T05:53:54.754Z,5.77
2018-11-02T05:56:25.571Z,5.03
2018-11-02T05:58:56.414Z,6.27
2018-11-02T06:01:27.348Z,5.53
2018-11-02T06:03:58.203Z,5.47
2018-11-02T06:06:29.305Z,5.27
2018-11-02T06:09:00.185Z,7.23
2018-11-02T06:11:31.432Z,6.90
2018-11-02T06:14:02.273Z,6.23
2018-11-02T06:16:33.207Z,5.90
2018-11-02T06:19:04.031Z,6.63
2018-11-02T06:21:34.936Z,5.50
2018-11-02T06:24:05.939Z,5.30
2018-11-02T06:26:36.846Z,5.67
2018-11-02T06:29:07.692Z,5.23
2018-11-02T06:31:38.640Z,6.00
2018-11-02T06:34:09.584Z,5.93
2018-11-02T06:36:40.564Z,7.10
2018-11-02T06:39:11.949Z,9.30
2018-11-02T06:41:42.816Z,7.93
2018-11-02T06:44:13.634Z,7.50
2018-11-02T06:46:44.703Z,7.37
2018-11-02T06:49:16.537Z,13.43
2018-11-02T06:51:47.396Z,10.30
2018-11-02T06:54:18.281Z,8.00
2018-11-02T06:56:49.217Z,10.03
2018-11-02T06:59:20.223Z,12.73
2018-11-02T07:01:51.088Z,9.60
2018-11-02T07:04:22.025Z,9.53
2018-11-02T07:06:52.588Z,8.63
2018-11-02T07:09:23.184Z,9.50
2018-11-02T07:11:54.154Z,10.23
2018-11-02T07:14:24.812Z,10.17
2018-11-02T07:16:55.640Z,9.77
2018-11-02T07:19:26.334Z,10.43
2018-11-02T07:21:56.981Z,12.43
2018-11-02T07:24:27.645Z,17.13
2018-11-02T07:26:58.375Z,14.17
2018-11-02T07:29:29.127Z,12.83
2018-11-02T07:31:59.745Z,13.20
2018-11-02T07:34:30.397Z,13.10
2018-11-02T07:37:01.082Z,13.43
2018-11-02T07:39:34.215Z,12.93
2018-11-02T07:42:05.040Z,12.87
2018-11-02T07:44:41.884Z,12.17
2018-11-02T07:47:12.612Z,10.47
2018-11-02T07:49:43.609Z,9.97
2018-11-02T07:52:14.139Z,11.23
2018-11-02T07:54:45.373Z,9.60
2018-11-02T07:57:15.942Z,10.47
2018-11-02T07:59:46.646Z,11.17
2018-11-02T08:02:17.386Z,10.57
2018-11-02T08:04:48.053Z,10.33
2018-11-02T08:07:18.616Z,10.80
2018-11-02T08:09:49.258Z,10.80
2018-11-02T08:12:19.832Z,10.77
2018-11-02T08:14:50.620Z,10.63
2018-11-02T08:17:21.474Z,12.13
2018-11-02T08:19:52.121Z,13.83
2018-11-02T08:22:22.631Z,15.40
2018-11-02T08:24:54.514Z,23.53
2018-11-02T08:27:25.225Z,11.80
2018-11-02T08:29:56.013Z,16.87
2018-11-02T08:32:26.575Z,16.93
2018-11-02T08:34:57.151Z,13.37
2018-11-02T08:37:27.868Z,12.67
2018-11-02T08:39:58.685Z,10.57
2018-11-02T08:42:29.192Z,11.03
2018-11-02T08:44:59.809Z,10.07
2018-11-02T08:47:30.216Z,9.83
2018-11-02T08:50:00.668Z,10.17
2018-11-02T08:52:31.125Z,8.50
2018-11-02T08:55:01.689Z,9.63
2018-11-02T08:57:32.239Z,8.23
2018-11-02T09:00:03.037Z,9.43
2018-11-02T09:02:33.538Z,8.80
2018-11-02T09:05:04.117Z,8.80
2018-11-02T09:07:34.574Z,9.60
2018-11-02T09:10:06.884Z,9.30
2018-11-02T09:12:38.878Z,22.03
2018-11-02T09:15:09.925Z,7.73
2018-11-02T09:17:41.208Z,8.07
2018-11-02T09:20:12.258Z,8.07
2018-11-02T09:22:43.208Z,8.33
2018-11-02T09:25:14.120Z,7.30
2018-11-02T09:27:45.012Z,7.60
2018-11-02T09:30:17.145Z,8.03
2018-11-02T09:32:48.181Z,6.80
2018-11-02T09:35:18.995Z,7.20
2018-11-02T09:37:50.043Z,17.53
2018-11-02T09:40:21.273Z,11.70
2018-11-02T09:42:52.439Z,8.03
2018-11-02T09:45:23.385Z,8.80
2018-11-02T09:47:54.516Z,7.40
2018-11-02T09:50:25.419Z,6.67
2018-11-02T09:52:56.269Z,7.50
2018-11-02T09:55:27.016Z,7.83
2018-11-02T09:57:57.884Z,7.70
2018-11-02T10:00:29.047Z,7.97
2018-11-02T10:03:00.754Z,7.43
2018-11-02T10:05:31.694Z,7.50
2018-11-02T10:08:02.893Z,8.00
2018-11-02T10:10:33.837Z,7.43
2018-11-02T10:13:04.764Z,7.73
2018-11-02T10:15:35.684Z,7.97
2018-11-02T10:18:06.927Z,7.77
2018-11-02T10:20:37.764Z,7.43
2018-11-02T10:23:09.229Z,8.27
2018-11-02T10:25:40.238Z,9.67
2018-11-02T10:28:11.451Z,12.83
2018-11-02T10:30:42.404Z,8.43
2018-11-02T10:33:14.080Z,8.47
2018-11-02T10:35:45.246Z,8.50
2018-11-02T10:38:16.431Z,8.37
2018-11-02T10:40:53.101Z,6.90
2018-11-02T10:43:24.579Z,7.90
2018-11-02T10:45:59.783Z,6.90
2018-11-02T10:48:31.549Z,6.30
2018-11-02T10:51:02.508Z,6.50
2018-11-02T10:53:33.490Z,5.70
2018-11-02T10:56:04.464Z,6.00
2018-11-02T10:58:35.443Z,7.00
2018-11-02T11:01:11.563Z,6.57
2018-11-02T11:03:42.423Z,5.90
2018-11-02T11:06:13.577Z,5.90
2018-11-02T11:08:45.389Z,6.23
2018-11-02T11:11:16.642Z,6.17
2018-11-02T11:13:48.663Z,5.73
2018-11-02T11:16:19.966Z,7.27
2018-11-02T11:18:51.000Z,7.53
2018-11-02T11:21:22.151Z,7.13
2018-11-02T11:23:53.337Z,8.33
2018-11-02T11:26:24.304Z,7.33
2018-11-02T11:28:55.401Z,7.70
2018-11-02T11:31:26.296Z,8.63
2018-11-02T11:33:57.262Z,7.70
2018-11-02T11:36:28.243Z,7.13
2018-11-02T11:38:59.204Z,8.90
2018-11-02T11:41:30.230Z,7.90
2018-11-02T11:44:01.241Z,7.93
2018-11-02T11:46:32.152Z,7.53
2018-11-02T11:49:03.224Z,8.13
2018-11-02T11:51:34.055Z,7.60
2018-11-02T11:54:05.198Z,7.53
2018-11-02T11:56:36.341Z,7.30
2018-11-02T11:59:07.450Z,7.77
2018-11-02T12:01:38.381Z,6.07
2018-11-02T12:04:10.662Z,6.97
2018-11-02T12:06:41.567Z,5.13
2018-11-02T12:09:12.752Z,10.30
2018-11-02T12:11:43.739Z,4.73
2018-11-02T12:14:14.890Z,5.00
2018-11-02T12:16:46.381Z,5.37
2018-11-02T12:19:17.415Z,4.90
2018-11-02T12:21:48.539Z,5.17
2018-11-02T12:24:19.435Z,4.97
2018-11-02T12:26:50.305Z,4.70
2018-11-02T12:29:21.424Z,5.63
2018-11-02T12:31:52.325Z,5.10
2018-11-02T12:34:23.861Z,4.33
2018-11-02T12:36:54.824Z,7.60
2018-11-02T12:39:25.738Z,4.50
2018-11-02T12:41:56.960Z,4.50
2018-11-02T12:44:27.820Z,4.60
2018-11-02T12:46:58.780Z,4.20
2018-11-02T12:49:29.994Z,5.80
2018-11-02T12:52:00.543Z,3.93
2018-11-02T12:54:31.672Z,5.27
2018-11-02T12:57:02.509Z,3.30
2018-11-02T12:59:33.367Z,4.13
2018-11-02T13:02:04.382Z,3.90
2018-11-02T13:04:35.196Z,4.40
2018-11-02T13:07:06.243Z,4.90
2018-11-02T13:09:37.346Z,6.23
2018-11-02T13:12:09.440Z,6.37
2018-11-02T13:14:40.410Z,4.60
2018-11-02T13:17:11.383Z,4.50
2018-11-02T13:19:42.276Z,4.03
2018-11-02T13:22:13.350Z,4.20
2018-11-02T13:24:44.150Z,4.87
2018-11-02T13:27:15.123Z,4.30
2018-11-02T13:29:46.029Z,4.43
2018-11-02T13:32:16.908Z,4.33
2018-11-02T13:34:47.935Z,4.77
2018-11-02T13:37:19.285Z,4.43
2018-11-02T13:39:50.153Z,4.77
2018-11-02T13:42:21.167Z,4.73
2018-11-02T13:44:52.107Z,4.17
2018-11-02T13:47:23.068Z,5.23
2018-11-02T13:49:53.963Z,6.63
2018-11-02T13:52:24.846Z,7.33
2018-11-02T13:54:55.761Z,8.20
2018-11-02T13:57:26.860Z,6.53
2018-11-02T13:59:57.848Z,8.10
2018-11-02T14:02:28.828Z,8.80
2018-11-02T14:04:59.829Z,9.03
2018-11-02T14:07:30.784Z,9.03
2018-11-02T14:10:01.781Z,8.80
2018-11-02T14:12:32.647Z,8.33
2018-11-02T14:15:03.548Z,6.57
2018-11-02T14:17:34.452Z,5.90
2018-11-02T14:20:06.497Z,6.27
2018-11-02T14:22:37.850Z,6.23
2018-11-02T14:25:12.193Z,6.63
2018-11-02T14:27:43.614Z,5.60
2018-11-02T14:30:16.014Z,6.03
2018-11-02T14:32:48.069Z,7.60
2018-11-02T14:35:18.953Z,8.57
2018-11-02T14:37:49.836Z,8.97
2018-11-02T14:40:20.691Z,7.57
2018-11-02T14:42:51.669Z,7.37
2018-11-02T14:45:22.632Z,8.43
2018-11-02T14:47:53.434Z,7.60
2018-11-02T14:50:24.420Z,6.97
2018-11-02T14:52:55.235Z,8.07
2018-11-02T14:55:26.094Z,9.50
2018-11-02T14:57:57.340Z,8.03
2018-11-02T15:00:28.265Z,8.20
2018-11-02T15:02:59.202Z,7.57
2018-11-02T15:05:30.176Z,7.73
2018-11-02T15:08:01.228Z,7.80
2018-11-02T15:10:32.107Z,7.37
2018-11-02T15:13:03.038Z,8.13
2018-11-02T15:15:34.047Z,8.33
2018-11-02T15:18:04.960Z,10.30
2018-11-02T15:20:35.862Z,17.53
2018-11-02T15:23:07.220Z,7.77
2018-11-02T15:25:38.081Z,7.23
2018-11-02T15:28:08.977Z,7.70
2018-11-02T15:30:39.862Z,8.93
2018-11-02T15:33:10.741Z,7.53
2018-11-02T15:35:41.712Z,7.57
2018-11-02T15:38:12.600Z,9.17
2018-11-02T15:40:43.600Z,10.27
2018-11-02T15:43:14.545Z,8.07
2018-11-02T15:45:45.492Z,8.67
2018-11-02T15:48:16.663Z,9.00
2018-11-02T15:50:47.831Z,8.90
2018-11-02T15:53:18.850Z,8.20
2018-11-02T15:55:49.691Z,9.50
2018-11-02T15:58:20.848Z,13.73
2018-11-02T16:00:51.787Z,10.63
2018-11-02T16:03:22.945Z,8.00
2018-11-02T16:05:53.925Z,8.93
2018-11-02T16:08:24.987Z,8.30
2018-11-02T16:10:56.088Z,8.03
2018-11-02T16:13:27.089Z,8.23
2018-11-02T16:15:57.940Z,8.30
2018-11-02T16:18:29.701Z,11.10
2018-11-02T16:21:00.626Z,9.10
2018-11-02T16:23:31.501Z,11.67
2018-11-02T16:26:02.405Z,13.77
2018-11-02T16:28:33.291Z,12.60
2018-11-02T16:31:04.338Z,22.27
2018-11-02T16:33:35.292Z,13.67
2018-11-02T16:36:06.915Z,18.70
2018-11-02T16:38:38.422Z,15.60
2018-11-02T16:41:09.382Z,13.67
2018-11-02T16:43:41.306Z,12.20
2018-11-02T16:46:12.550Z,14.43
2018-11-02T16:48:43.407Z,13.57
2018-11-02T16:51:14.506Z,15.47
2018-11-02T16:53:45.490Z,17.47
2018-11-02T16:56:16.384Z,7.37
2018-11-02T16:58:47.262Z,6.53
2018-11-02T17:01:18.921Z,6.27
2018-11-02T17:03:50.022Z,6.50
2018-11-02T17:06:21.041Z,6.67
2018-11-02T17:08:52.220Z,6.63
2018-11-02T17:11:23.229Z,7.63
2018-11-02T17:13:54.058Z,8.50
2018-11-02T17:16:24.903Z,9.03
2018-11-02T17:18:55.872Z,10.23
2018-11-02T17:21:26.754Z,11.03
2018-11-02T17:23:58.069Z,13.77
2018-11-02T17:26:29.445Z,14.63
2018-11-02T17:29:00.487Z,13.23
2018-11-02T17:31:31.610Z,17.97
2018-11-02T17:34:02.519Z,17.47
2018-11-02T17:36:33.747Z,17.07
2018-11-02T17:39:06.765Z,19.10
2018-11-02T17:41:38.177Z,20.33
2018-11-02T17:44:09.586Z,20.37
2018-11-02T17:46:40.729Z,21.00
2018-11-02T17:49:11.714Z,21.47
2018-11-02T17:51:42.706Z,22.07
2018-11-02T17:54:13.691Z,22.13
2018-11-02T17:56:45.788Z,21.87
2018-11-02T17:59:16.878Z,22.20
2018-11-02T18:01:47.749Z,23.17
2018-11-02T18:04:18.734Z,25.57
2018-11-02T18:06:49.771Z,22.10
2018-11-02T18:09:21.015Z,22.83
2018-11-02T18:11:52.326Z,23.70
2018-11-02T18:14:23.170Z,22.50
2018-11-02T18:16:55.000Z,23.20
2018-11-02T18:19:25.945Z,22.93
2018-11-02T18:21:56.925Z,24.07
2018-11-02T18:24:27.851Z,27.17
2018-11-02T18:26:58.756Z,30.67
2018-11-02T18:29:29.716Z,24.93
2018-11-02T18:32:00.679Z,26.93
2018-11-02T18:34:31.729Z,25.40
2018-11-02T18:37:02.662Z,24.83
2018-11-02T18:39:33.972Z,26.83
2018-11-02T18:42:04.995Z,32.23
2018-11-02T18:44:35.926Z,25.37
2018-11-02T18:47:07.428Z,27.00
2018-11-02T18:49:38.542Z,46.37
2018-11-02T18:52:09.491Z,27.90
2018-11-02T18:54:40.541Z,39.90
2018-11-02T18:57:11.610Z,26.10
2018-11-02T18:59:42.900Z,25.77
2018-11-02T19:02:13.869Z,30.50
2018-11-02T19:04:45.178Z,36.67
2018-11-02T19:07:16.569Z,36.10
2018-11-02T19:09:47.607Z,33.17
2018-11-02T19:12:18.675Z,28.83
2018-11-02T19:14:49.879Z,30.73
2018-11-02T19:17:20.813Z,28.33
2018-11-02T19:19:51.761Z,27.77
2018-11-02T19:22:22.876Z,28.03
2018-11-02T19:24:54.515Z,28.37
2018-11-02T19:27:25.891Z,29.40
2018-11-02T19:29:57.039Z,29.03
2018-11-02T19:32:28.205Z,29.20
2018-11-02T19:34:59.541Z,31.20
2018-11-02T19:37:30.499Z,28.67
2018-11-02T19:40:01.512Z,28.27
2018-11-02T19:42:32.988Z,32.83
2018-11-02T19:45:04.154Z,33.27
2018-11-02T19:47:40.077Z,29.80
2018-11-02T19:50:13.457Z,30.10
2018-11-02T19:52:44.486Z,30.07
2018-11-02T19:55:15.541Z,29.77
2018-11-02T19:57:46.435Z,29.23
2018-11-02T20:00:18.198Z,27.70
2018-11-02T20:02:49.664Z,29.60
2018-11-02T20:05:21.816Z,31.77
2018-11-02T20:07:52.807Z,31.20
2018-11-02T20:10:23.901Z,30.47
2018-11-02T20:12:55.205Z,30.53
2018-11-02T20:15:26.770Z,30.73
2018-11-02T20:17:57.768Z,31.97
2018-11-02T20:20:28.750Z,30.83
2018-11-02T20:22:59.822Z,31.13
2018-11-02T20:25:31.122Z,30.70
2018-11-02T20:28:02.084Z,30.83
2018-11-02T20:30:33.163Z,32.67
2018-11-02T20:33:04.085Z,32.10
2018-11-02T20:35:34.954Z,49.00
2018-11-02T20:38:05.889Z,38.73
2018-11-02T20:40:36.857Z,35.63
2018-11-02T20:43:07.902Z,32.17
2018-11-02T20:45:38.873Z,34.53
2018-11-02T20:48:10.011Z,34.60
2018-11-02T20:50:41.079Z,34.10
2018-11-02T20:53:12.032Z,34.67
2018-11-02T20:55:42.975Z,33.97
2018-11-02T20:58:13.917Z,36.27
2018-11-02T21:00:44.882Z,36.97
2018-11-02T21:03:16.192Z,35.37
2018-11-02T21:05:47.262Z,36.70
2018-11-02T21:08:18.375Z,42.97
2018-11-02T21:10:49.330Z,42.27
2018-11-02T21:13:20.251Z,42.83
2018-11-02T21:15:51.250Z,38.70
2018-11-02T21:18:22.252Z,40.43
2018-11-02T21:20:53.616Z,39.90
2018-11-02T21:23:24.523Z,38.33
2018-11-02T21:25:55.422Z,39.43
2018-11-02T21:28:26.495Z,40.93
2018-11-02T21:30:57.470Z,41.27
2018-11-02T21:33:28.447Z,42.93
2018-11-02T21:36:00.388Z,39.97
2018-11-02T21:38:31.477Z,44.30
2018-11-02T21:41:02.472Z,40.97
2018-11-02T21:43:33.426Z,42.57
2018-11-02T21:46:04.725Z,44.43
2018-11-02T21:48:35.647Z,54.17
2018-11-02T21:51:07.151Z,49.83
2018-11-02T21:53:38.130Z,42.47
2018-11-02T21:56:09.079Z,44.60
2018-11-02T21:58:40.049Z,45.33
2018-11-02T22:01:10.928Z,46.60
2018-11-02T22:03:41.900Z,44.27
2018-11-02T22:06:12.817Z,42.93
2018-11-02T22:08:43.779Z,43.07
2018-11-02T22:11:14.756Z,86.70
2018-11-02T22:13:45.732Z,101.63
2018-11-02T22:16:17.480Z,55.97
2018-11-02T22:18:48.499Z,51.57
2018-11-02T22:21:19.443Z,43.27
2018-11-02T22:23:50.290Z,41.13
2018-11-02T22:26:21.323Z,40.87
2018-11-02T22:28:52.369Z,40.47
2018-11-02T22:31:23.257Z,41.97
2018-11-02T22:33:54.178Z,42.83
2018-11-02T22:36:25.309Z,42.80
2018-11-02T22:38:56.454Z,42.67
2018-11-02T22:41:27.551Z,41.77
2018-11-02T22:43:58.730Z,43.93
2018-11-02T22:46:30.023Z,44.13
2018-11-02T22:49:00.884Z,44.90
2018-11-02T22:51:31.885Z,46.30
2018-11-02T22:54:03.181Z,47.53
2018-11-02T22:56:34.322Z,49.63
2018-11-02T22:59:05.398Z,51.13
2018-11-02T23:01:37.133Z,49.23
2018-11-02T23:04:08.132Z,52.30
2018-11-02T23:06:38.988Z,47.27
2018-11-02T23:09:10.750Z,47.70
2018-11-02T23:11:41.689Z,51.23
2018-11-02T23:14:12.709Z,48.00
2018-11-02T23:16:43.902Z,48.37
2018-11-02T23:19:16.617Z,47.63
2018-11-02T23:21:47.628Z,49.67
2018-11-02T23:24:19.136Z,46.77
2018-11-02T23:26:50.063Z,47.23
2018-11-02T23:29:21.048Z,45.37
2018-11-02T23:31:52.042Z,45.60
2018-11-02T23:34:23.070Z,44.97
2018-11-02T23:36:53.883Z,44.90
2018-11-02T23:39:24.754Z,52.20
2018-11-02T23:41:55.594Z,72.23
2018-11-02T23:44:26.423Z,47.37
2018-11-02T23:46:57.280Z,43.67
2018-11-02T23:49:28.150Z,44.07
2018-11-02T23:51:59.060Z,45.30
2018-11-02T23:54:30.195Z,44.80
2018-11-02T23:57:01.212Z,46.37
2018-11-02T23:59:32.120Z,46.43
